createdAt,value
2019-03-03T00:01:55.243Z,96585.64
2019-03-03T00:05:28.462Z,96589.34
2019-03-03T00:07:57.555Z,96586.02
2019-03-03T00:10:26.640Z,96582.02
2019-03-03T00:12:55.736Z,96585.27
2019-03-03T00:15:24.824Z,96581.84
2019-03-03T00:17:53.917Z,96582.09
2019-03-03T00:20:22.995Z,96580.68
2019-03-03T00:22:52.114Z,96579.48
2019-03-03T00:25:21.193Z,96584.35
2019-03-03T00:27:50.290Z,96574.36
2019-03-03T00:30:19.648Z,96587.19
2019-03-03T00:32:48.737Z,96574.94
2019-03-03T00:35:17.822Z,96560.50
2019-03-03T00:38:05.886Z,96568.85
2019-03-03T00:40:49.005Z,96567.05
2019-03-03T00:43:49.206Z,96564.97
2019-03-03T00:46:46.479Z,96572.74
2019-03-03T00:49:31.121Z,96559.53
2019-03-03T00:52:22.025Z,96559.23
2019-03-03T00:55:08.459Z,96557.98
2019-03-03T00:57:56.524Z,96565.54
2019-03-03T01:00:36.044Z,96559.81
2019-03-03T01:03:16.938Z,96550.09
2019-03-03T01:05:58.977Z,96548.64
2019-03-03T01:08:45.531Z,96545.75
2019-03-03T01:11:33.498Z,96541.56
2019-03-03T01:14:10.301Z,96542.27
2019-03-03T01:16:56.779Z,96540.98
2019-03-03T01:19:34.377Z,96546.16
2019-03-03T01:22:12.173Z,96545.56
2019-03-03T01:24:55.387Z,96534.14
2019-03-03T01:27:25.068Z,96538.83
2019-03-03T01:29:54.259Z,96530.48
2019-03-03T01:32:23.340Z,96532.19
2019-03-03T01:34:52.432Z,96523.66
2019-03-03T01:37:21.507Z,96527.72
2019-03-03T01:39:50.669Z,96524.23
2019-03-03T01:42:19.752Z,96508.91
2019-03-03T01:44:48.837Z,96514.05
2019-03-03T01:47:17.913Z,96503.80
2019-03-03T01:49:47.011Z,96497.69
2019-03-03T01:52:16.087Z,96490.78
2019-03-03T01:54:45.184Z,96487.23
2019-03-03T01:57:14.267Z,96479.98
2019-03-03T01:59:43.355Z,96475.41
2019-03-03T02:02:12.429Z,96470.86
2019-03-03T02:04:41.520Z,96477.08
2019-03-03T02:07:10.599Z,96478.36
2019-03-03T02:09:39.693Z,96471.39
2019-03-03T02:12:08.776Z,96489.62
2019-03-03T02:14:37.855Z,96488.05
2019-03-03T02:17:07.332Z,96485.70
2019-03-03T02:19:36.406Z,96488.39
2019-03-03T02:22:06.017Z,96488.25
2019-03-03T02:24:35.116Z,96485.06
2019-03-03T02:27:04.234Z,96485.34
2019-03-03T02:29:33.411Z,96473.59
2019-03-03T02:32:03.688Z,96468.54
2019-03-03T02:34:32.768Z,96466.11
2019-03-03T02:37:01.858Z,96456.80
2019-03-03T02:39:30.929Z,96466.40
2019-03-03T02:42:00.030Z,96470.45
2019-03-03T02:44:29.114Z,96460.28
2019-03-03T02:46:58.231Z,96458.19
2019-03-03T02:49:27.301Z,96450.97
2019-03-03T02:51:56.393Z,96442.34
2019-03-03T02:54:25.466Z,96441.61
2019-03-03T02:56:54.567Z,96438.08
2019-03-03T02:59:23.649Z,96430.27
2019-03-03T03:01:56.313Z,96432.16
2019-03-03T03:04:26.338Z,96451.36
2019-03-03T03:07:05.497Z,96444.92
2019-03-03T03:09:53.540Z,96451.41
2019-03-03T03:12:44.551Z,96447.73
2019-03-03T03:15:31.647Z,96441.81
2019-03-03T03:18:13.831Z,96453.32
2019-03-03T03:20:58.147Z,96440.27
2019-03-03T03:23:39.218Z,96442.42
2019-03-03T03:26:27.258Z,96451.27
2019-03-03T03:29:24.210Z,96438.98
2019-03-03T03:32:15.129Z,96444.01
2019-03-03T03:34:56.903Z,96451.22
2019-03-03T03:37:32.493Z,96445.05
2019-03-03T03:40:19.625Z,96442.09
2019-03-03T03:43:07.685Z,96440.44
2019-03-03T03:45:49.005Z,96436.14
2019-03-03T03:48:35.876Z,96451.41
2019-03-03T03:51:19.036Z,96431.69
2019-03-03T03:54:05.653Z,96420.96
2019-03-03T03:56:44.609Z,96422.54
2019-03-03T03:59:41.619Z,96428.12
2019-03-03T04:02:32.460Z,96426.87
2019-03-03T04:05:09.277Z,96412.61
2019-03-03T04:08:00.166Z,96400.87
2019-03-03T04:11:00.112Z,96389.85
2019-03-03T04:13:48.174Z,96394.67
2019-03-03T04:16:39.236Z,96396.81
2019-03-03T04:19:21.820Z,96390.58
2019-03-03T04:22:15.989Z,96393.86
2019-03-03T04:24:53.676Z,96391.44
2019-03-03T04:27:32.683Z,96384.75
2019-03-03T04:30:09.662Z,96389.25
2019-03-03T04:32:57.725Z,96383.33
2019-03-03T04:35:48.957Z,96383.04
2019-03-03T04:38:49.216Z,96384.70
2019-03-03T04:41:31.425Z,96374.34
2019-03-03T04:44:11.263Z,96360.14
2019-03-03T04:46:54.084Z,96376.98
2019-03-03T04:49:34.211Z,96376.93
2019-03-03T04:52:25.735Z,96363.33
2019-03-03T04:55:12.499Z,96366.25
2019-03-03T04:57:56.745Z,96354.22
2019-03-03T05:01:00.215Z,96363.77
2019-03-03T05:03:49.178Z,96378.55
2019-03-03T05:06:32.537Z,96369.16
2019-03-03T05:09:32.830Z,96365.91
2019-03-03T05:12:44.300Z,96364.05
2019-03-03T05:15:51.631Z,96365.15
2019-03-03T05:18:28.695Z,96361.43
2019-03-03T05:20:57.789Z,96358.71
2019-03-03T05:23:26.904Z,96353.13
2019-03-03T05:25:56.003Z,96358.27
2019-03-03T05:28:25.089Z,96344.35
2019-03-03T05:30:54.186Z,96348.59
2019-03-03T05:33:23.268Z,96333.95
2019-03-03T05:35:52.366Z,96322.69
2019-03-03T05:38:21.449Z,96319.25
2019-03-03T05:40:50.558Z,96326.41
2019-03-03T05:43:19.638Z,96318.11
2019-03-03T05:45:48.739Z,96314.35
2019-03-03T05:48:17.809Z,96318.69
2019-03-03T05:50:46.904Z,96320.34
2019-03-03T05:53:15.982Z,96317.95
2019-03-03T05:55:45.073Z,96314.95
2019-03-03T05:58:14.145Z,96320.06
2019-03-03T06:00:43.243Z,96323.33
2019-03-03T06:03:12.314Z,96321.95
2019-03-03T06:05:41.414Z,96319.33
2019-03-03T06:08:10.488Z,96313.70
2019-03-03T06:10:39.591Z,96328.95
2019-03-03T06:13:08.672Z,96319.60
2019-03-03T06:15:37.776Z,96308.88
2019-03-03T06:18:06.849Z,96328.11
2019-03-03T06:20:35.950Z,96313.70
2019-03-03T06:23:05.049Z,96307.55
2019-03-03T06:25:34.154Z,96315.59
2019-03-03T06:28:03.224Z,96326.53
2019-03-03T06:30:32.323Z,96316.12
2019-03-03T06:33:01.410Z,96327.87
2019-03-03T06:35:30.512Z,96321.47
2019-03-03T06:37:59.593Z,96315.03
2019-03-03T06:40:28.668Z,96319.64
2019-03-03T06:42:57.776Z,96344.47
2019-03-03T06:45:26.845Z,96340.45
2019-03-03T06:47:55.944Z,96327.66
2019-03-03T06:50:25.039Z,96333.53
2019-03-03T06:52:54.129Z,96327.09
2019-03-03T06:55:23.197Z,96327.94
2019-03-03T06:57:52.300Z,96335.11
2019-03-03T07:00:21.377Z,96334.06
2019-03-03T07:02:50.477Z,96345.56
2019-03-03T07:05:19.606Z,96347.42
2019-03-03T07:07:48.658Z,96346.65
2019-03-03T07:10:17.730Z,96345.31
2019-03-03T07:12:46.821Z,96345.34
2019-03-03T07:15:16.590Z,96347.78
2019-03-03T07:17:45.687Z,96347.22
2019-03-03T07:20:14.777Z,96362.44
2019-03-03T07:22:43.877Z,96341.34
2019-03-03T07:25:13.174Z,96353.13
2019-03-03T07:27:42.279Z,96348.06
2019-03-03T07:30:13.106Z,96343.77
2019-03-03T07:33:04.260Z,96344.58
2019-03-03T07:35:33.347Z,96348.06
2019-03-03T07:38:02.442Z,96342.47
2019-03-03T07:40:31.518Z,96344.13
2019-03-03T07:43:00.627Z,96348.38
2019-03-03T07:45:29.703Z,96349.47
2019-03-03T07:47:58.808Z,96357.83
2019-03-03T07:50:27.890Z,96353.86
2019-03-03T07:52:56.974Z,96364.52
2019-03-03T07:55:26.076Z,96361.62
2019-03-03T07:57:55.153Z,96351.22
2019-03-03T08:00:24.256Z,96353.36
2019-03-03T08:02:53.327Z,96349.91
2019-03-03T08:05:22.427Z,96357.90
2019-03-03T08:07:51.498Z,96353.61
2019-03-03T08:10:20.614Z,96356.59
2019-03-03T08:12:49.689Z,96358.18
2019-03-03T08:15:18.885Z,96359.55
2019-03-03T08:17:47.967Z,96355.03
2019-03-03T08:20:17.070Z,96330.69
2019-03-03T08:22:46.162Z,96337.93
2019-03-03T08:25:15.777Z,96333.75
2019-03-03T08:27:44.852Z,96340.96
2019-03-03T08:30:13.966Z,96331.09
2019-03-03T08:32:43.058Z,96330.08
2019-03-03T08:35:13.243Z,96331.84
2019-03-03T08:37:42.319Z,96328.37
2019-03-03T08:40:11.415Z,96330.74
2019-03-03T08:42:46.822Z,96328.63
2019-03-03T08:45:37.685Z,96329.68
2019-03-03T08:48:14.380Z,96324.30
2019-03-03T08:50:56.339Z,96320.64
2019-03-03T08:53:40.886Z,96309.41
2019-03-03T08:56:34.847Z,96324.41
2019-03-03T08:59:14.585Z,96316.41
2019-03-03T09:01:56.235Z,96330.01
2019-03-03T09:04:42.656Z,96321.72
2019-03-03T09:07:22.758Z,96302.99
2019-03-03T09:09:59.775Z,96323.80
2019-03-03T09:12:46.550Z,96317.41
2019-03-03T09:15:33.289Z,96316.62
2019-03-03T09:18:21.764Z,96321.20
2019-03-03T09:21:18.805Z,96318.56
2019-03-03T09:24:05.335Z,96313.97
2019-03-03T09:27:01.271Z,96312.10
2019-03-03T09:29:35.625Z,96311.30
2019-03-03T09:32:32.875Z,96316.40
2019-03-03T09:35:14.025Z,96323.89
2019-03-03T09:38:04.912Z,96311.02
2019-03-03T09:40:47.773Z,96319.56
2019-03-03T09:43:32.059Z,96313.39
2019-03-03T09:46:19.684Z,96308.39
2019-03-03T09:49:08.619Z,96322.00
2019-03-03T09:51:53.890Z,96328.14
2019-03-03T09:54:39.660Z,96315.83
2019-03-03T09:57:21.456Z,96316.65
2019-03-03T10:00:12.589Z,96319.08
2019-03-03T10:03:00.657Z,96313.72
2019-03-03T10:05:53.950Z,96327.09
2019-03-03T10:08:29.590Z,96311.83
2019-03-03T10:11:10.346Z,96316.65
2019-03-03T10:13:47.564Z,96316.38
2019-03-03T10:16:26.715Z,96324.95
2019-03-03T10:19:13.420Z,96316.09
2019-03-03T10:22:04.355Z,96315.03
2019-03-03T10:24:44.467Z,96313.17
2019-03-03T10:27:44.480Z,96313.19
2019-03-03T10:30:39.349Z,96303.29
2019-03-03T10:33:18.404Z,96318.27
2019-03-03T10:36:09.251Z,96315.61
2019-03-03T10:38:56.546Z,96324.40
2019-03-03T10:41:47.426Z,96296.05
2019-03-03T10:44:44.346Z,96315.83
2019-03-03T10:47:41.336Z,96318.52
2019-03-03T10:50:47.850Z,96318.55
2019-03-03T10:53:26.593Z,96332.45
2019-03-03T10:56:19.279Z,96310.53
2019-03-03T10:59:25.385Z,96310.25
2019-03-03T11:02:11.997Z,96318.23
2019-03-03T11:05:01.162Z,96316.09
2019-03-03T11:07:46.638Z,96306.52
2019-03-03T11:10:41.183Z,96306.77
2019-03-03T11:13:29.261Z,96299.59
2019-03-03T11:16:14.954Z,96263.95
2019-03-03T11:19:09.062Z,96281.13
2019-03-03T11:22:05.300Z,96290.20
2019-03-03T11:24:59.311Z,96284.35
2019-03-03T11:27:47.353Z,96276.28
2019-03-03T11:30:36.766Z,96281.11
2019-03-03T11:33:26.795Z,96272.80
2019-03-03T11:36:15.029Z,96276.32
2019-03-03T11:39:09.187Z,96283.81
2019-03-03T11:41:47.493Z,96273.41
2019-03-03T11:44:41.386Z,96279.82
2019-03-03T11:47:28.173Z,96262.94
2019-03-03T11:50:05.600Z,96279.80
2019-03-03T11:52:56.745Z,96269.88
2019-03-03T11:55:30.815Z,96254.90
2019-03-03T11:58:17.608Z,96242.33
2019-03-03T12:01:04.274Z,96238.62
2019-03-03T12:03:55.373Z,96238.89
2019-03-03T12:06:39.003Z,96225.77
2019-03-03T12:09:30.907Z,96229.54
2019-03-03T12:12:33.976Z,96237.83
2019-03-03T12:15:10.985Z,96215.59
2019-03-03T12:17:57.855Z,96208.91
2019-03-03T12:20:44.669Z,96196.84
2019-03-03T12:23:47.953Z,96192.30
2019-03-03T12:26:31.975Z,96176.73
2019-03-03T12:29:13.548Z,96183.45
2019-03-03T12:31:54.909Z,96178.05
2019-03-03T12:34:49.033Z,96179.72
2019-03-03T12:37:37.097Z,96177.83
2019-03-03T12:40:27.592Z,96175.66
2019-03-03T12:43:01.936Z,96166.57
2019-03-03T12:45:50.014Z,96160.41
2019-03-03T12:48:33.378Z,96160.90
2019-03-03T12:51:21.441Z,96179.15
2019-03-03T12:54:03.653Z,96176.17
2019-03-03T12:56:39.388Z,96191.20
2019-03-03T12:59:27.434Z,96181.59
2019-03-03T13:02:19.377Z,96177.04
2019-03-03T13:04:58.575Z,96169.53
2019-03-03T13:07:46.337Z,96175.14
2019-03-03T13:10:32.952Z,96170.86
2019-03-03T13:13:09.984Z,96169.53
2019-03-03T13:16:01.023Z,96173.00
2019-03-03T13:18:54.861Z,96168.19
2019-03-03T13:21:45.751Z,96157.77
2019-03-03T13:24:26.561Z,96155.89
2019-03-03T13:27:12.890Z,96139.27
2019-03-03T13:30:19.198Z,96150.27
2019-03-03T13:33:10.279Z,96153.22
2019-03-03T13:35:48.273Z,96124.55
2019-03-03T13:38:39.113Z,96128.30
2019-03-03T13:41:14.444Z,96129.89
2019-03-03T13:43:43.540Z,96116.52
2019-03-03T13:46:12.619Z,96100.19
2019-03-03T13:48:41.716Z,96093.23
2019-03-03T13:51:10.800Z,96087.09
2019-03-03T13:53:39.900Z,96088.94
2019-03-03T13:56:09.074Z,96098.31
2019-03-03T13:58:38.178Z,96089.22
2019-03-03T14:01:07.257Z,96078.78
2019-03-03T14:03:36.349Z,96074.77
2019-03-03T14:06:05.621Z,96068.08
2019-03-03T14:08:34.715Z,96077.44
2019-03-03T14:11:03.789Z,96066.45
2019-03-03T14:13:32.886Z,96065.38
2019-03-03T14:16:01.965Z,96067.00
2019-03-03T14:18:31.061Z,96055.23
2019-03-03T14:21:00.249Z,96060.03
2019-03-03T14:23:29.347Z,96054.39
2019-03-03T14:25:58.452Z,96055.73
2019-03-03T14:28:27.545Z,96047.19
2019-03-03T14:30:56.623Z,96054.13
2019-03-03T14:33:26.033Z,96046.39
2019-03-03T14:35:55.106Z,96049.86
2019-03-03T14:38:24.206Z,96043.45
2019-03-03T14:40:53.281Z,96039.13
2019-03-03T14:43:22.394Z,96031.61
2019-03-03T14:45:51.471Z,96041.79
2019-03-03T14:48:20.578Z,96025.95
2019-03-03T14:50:49.702Z,96022.19
2019-03-03T14:53:18.723Z,96016.82
2019-03-03T14:55:47.826Z,96025.39
2019-03-03T14:58:16.905Z,96015.72
2019-03-03T15:00:46.002Z,96016.80
2019-03-03T15:03:15.077Z,96009.27
2019-03-03T15:05:44.285Z,96015.73
2019-03-03T15:08:13.375Z,96003.66
2019-03-03T15:10:42.454Z,95996.14
2019-03-03T15:13:11.531Z,96013.83
2019-03-03T15:15:40.630Z,96000.17
2019-03-03T15:18:09.706Z,95998.27
2019-03-03T15:20:38.815Z,96011.64
2019-03-03T15:23:07.902Z,95993.15
2019-03-03T15:25:37.028Z,95974.36
2019-03-03T15:28:06.109Z,95989.40
2019-03-03T15:30:35.213Z,95975.44
2019-03-03T15:33:04.292Z,96004.92
2019-03-03T15:35:33.388Z,95981.84
2019-03-03T15:38:02.556Z,95981.33
2019-03-03T15:40:31.675Z,95970.55
2019-03-03T15:43:00.751Z,95972.45
2019-03-03T15:45:30.057Z,95969.18
2019-03-03T15:47:59.142Z,95976.95
2019-03-03T15:50:28.228Z,95957.36
2019-03-03T15:52:57.438Z,95947.67
2019-03-03T15:55:26.557Z,95956.85
2019-03-03T15:57:55.659Z,95938.59
2019-03-03T16:00:26.642Z,95940.20
2019-03-03T16:02:56.432Z,95933.23
2019-03-03T16:05:25.612Z,95950.18
2019-03-03T16:07:54.708Z,95935.14
2019-03-03T16:10:24.111Z,95940.56
2019-03-03T16:12:53.208Z,95940.53
2019-03-03T16:15:22.499Z,95922.27
2019-03-03T16:17:51.599Z,95930.34
2019-03-03T16:20:20.681Z,95927.97
2019-03-03T16:22:49.791Z,95924.78
2019-03-03T16:25:19.641Z,95934.37
2019-03-03T16:27:48.735Z,95922.91
2019-03-03T16:30:18.836Z,95924.78
2019-03-03T16:32:47.942Z,95932.59
2019-03-03T16:35:17.027Z,95931.24
2019-03-03T16:37:46.124Z,95943.03
2019-03-03T16:40:16.995Z,95936.01
2019-03-03T16:42:46.090Z,95931.75
2019-03-03T16:45:15.421Z,95939.25
2019-03-03T16:47:44.590Z,95923.70
2019-03-03T16:50:15.074Z,95924.61
2019-03-03T16:52:44.174Z,95923.77
2019-03-03T16:55:13.758Z,95919.75
2019-03-03T16:57:42.860Z,95922.16
2019-03-03T17:00:14.726Z,95916.86
2019-03-03T17:02:43.824Z,95900.75
2019-03-03T17:05:13.634Z,95915.02
2019-03-03T17:07:42.759Z,95895.99
2019-03-03T17:10:12.061Z,95895.43
2019-03-03T17:12:41.172Z,95911.23
2019-03-03T17:15:13.141Z,95892.24
2019-03-03T17:17:42.262Z,95882.87
2019-03-03T17:20:11.348Z,95885.52
2019-03-03T17:22:40.466Z,95872.95
2019-03-03T17:25:12.065Z,95866.49
2019-03-03T17:27:41.171Z,95869.41
2019-03-03T17:30:13.232Z,95872.63
2019-03-03T17:32:42.315Z,95860.33
2019-03-03T17:35:11.507Z,95855.74
2019-03-03T17:37:40.578Z,95853.30
2019-03-03T17:40:11.898Z,95839.39
2019-03-03T17:42:40.969Z,95854.41
2019-03-03T17:45:12.394Z,95836.42
2019-03-03T17:47:41.466Z,95831.02
2019-03-03T17:50:11.687Z,95832.16
2019-03-03T17:52:40.765Z,95830.25
2019-03-03T17:55:10.362Z,95831.02
2019-03-03T17:57:39.551Z,95836.95
2019-03-03T18:00:12.440Z,95828.91
2019-03-03T18:02:41.521Z,95819.53
2019-03-03T18:05:10.653Z,95820.88
2019-03-03T18:07:39.770Z,95812.06
2019-03-03T18:10:09.636Z,95801.31
2019-03-03T18:12:38.717Z,95812.88
2019-03-03T18:15:08.318Z,95820.34
2019-03-03T18:17:37.391Z,95811.49
2019-03-03T18:20:06.977Z,95802.65
2019-03-03T18:22:36.057Z,95811.27
2019-03-03T18:25:05.361Z,95802.42
2019-03-03T18:27:34.436Z,95796.52
2019-03-03T18:30:03.536Z,95797.33
2019-03-03T18:32:32.619Z,95795.19
2019-03-03T18:35:01.716Z,95800.20
2019-03-03T18:37:30.790Z,95805.48
2019-03-03T18:40:00.153Z,95809.22
2019-03-03T18:42:29.321Z,95810.25
2019-03-03T18:44:58.402Z,95807.84
2019-03-03T18:47:27.496Z,95803.33
2019-03-03T18:49:56.576Z,95774.52
2019-03-03T18:52:25.680Z,95790.83
2019-03-03T18:54:54.754Z,95807.22
2019-03-03T18:57:23.854Z,95797.30
2019-03-03T18:59:52.933Z,95787.38
2019-03-03T19:02:22.031Z,95794.34
2019-03-03T19:04:51.118Z,95804.49
2019-03-03T19:07:20.221Z,95799.38
2019-03-03T19:09:49.293Z,95786.23
2019-03-03T19:12:18.396Z,95803.47
2019-03-03T19:14:47.474Z,95788.23
2019-03-03T19:17:16.573Z,95788.49
2019-03-03T19:19:45.655Z,95779.91
2019-03-03T19:22:14.759Z,95764.91
2019-03-03T19:24:43.857Z,95774.33
2019-03-03T19:27:13.171Z,95764.33
2019-03-03T19:29:42.247Z,95772.14
2019-03-03T19:32:11.343Z,95756.12
2019-03-03T19:34:40.417Z,95750.84
2019-03-03T19:37:09.514Z,95748.66
2019-03-03T19:39:38.594Z,95752.67
2019-03-03T19:42:07.694Z,95747.54
2019-03-03T19:44:36.779Z,95748.34
2019-03-03T19:47:05.882Z,95753.75
2019-03-03T19:49:34.958Z,95762.59
2019-03-03T19:52:04.057Z,95748.37
2019-03-03T19:54:33.125Z,95755.03
2019-03-03T19:57:02.198Z,95754.81
2019-03-03T19:59:31.290Z,95728.77
2019-03-03T20:02:00.360Z,95730.38
2019-03-03T20:04:29.460Z,95733.64
2019-03-03T20:06:58.543Z,95729.08
2019-03-03T20:09:27.638Z,95729.89
2019-03-03T20:11:56.709Z,95717.61
2019-03-03T20:14:25.801Z,95716.75
2019-03-03T20:16:56.118Z,95717.30
2019-03-03T20:19:25.357Z,95729.90
2019-03-03T20:21:54.435Z,95717.61
2019-03-03T20:24:23.563Z,95711.77
2019-03-03T20:26:52.638Z,95715.70
2019-03-03T20:29:21.728Z,95718.42
2019-03-03T20:31:51.215Z,95734.45
2019-03-03T20:34:20.318Z,95721.36
2019-03-03T20:36:49.398Z,95719.77
2019-03-03T20:39:18.498Z,95706.37
2019-03-03T20:41:47.570Z,95729.14
2019-03-03T20:44:16.677Z,95706.84
2019-03-03T20:46:45.750Z,95706.58
2019-03-03T20:49:14.839Z,95703.67
2019-03-03T20:51:43.909Z,95695.64
2019-03-03T20:54:13.009Z,95686.84
2019-03-03T20:56:42.088Z,95684.34
2019-03-03T20:59:11.187Z,95652.77
2019-03-03T21:01:40.274Z,95668.30
2019-03-03T21:04:09.369Z,95664.55
2019-03-03T21:06:38.445Z,95670.11
2019-03-03T21:09:08.222Z,95659.34
2019-03-03T21:11:37.297Z,95665.51
2019-03-03T21:14:06.404Z,95657.31
2019-03-03T21:16:35.485Z,95643.97
2019-03-03T21:19:04.595Z,95645.05
2019-03-03T21:21:33.680Z,95652.98
2019-03-03T21:24:02.779Z,95684.48
2019-03-03T21:26:31.878Z,95667.20
2019-03-03T21:29:00.979Z,95653.47
2019-03-03T21:31:30.058Z,95648.41
2019-03-03T21:33:59.137Z,95635.03
2019-03-03T21:36:28.237Z,95628.06
2019-03-03T21:38:57.313Z,95620.75
2019-03-03T21:41:26.420Z,95618.61
2019-03-03T21:43:55.498Z,95619.17
2019-03-03T21:46:24.648Z,95631.47
2019-03-03T21:48:53.733Z,95614.36
2019-03-03T21:51:22.841Z,95608.75
2019-03-03T21:53:51.925Z,95605.38
2019-03-03T21:56:21.028Z,95612.03
2019-03-03T21:58:50.115Z,95596.53
2019-03-03T22:01:19.920Z,95573.20
2019-03-03T22:03:49.014Z,95568.84
2019-03-03T22:06:18.116Z,95568.02
2019-03-03T22:08:47.198Z,95570.97
2019-03-03T22:11:16.619Z,95564.95
2019-03-03T22:13:45.703Z,95555.88
2019-03-03T22:16:14.802Z,95577.29
2019-03-03T22:18:43.890Z,95561.60
2019-03-03T22:21:13.002Z,95556.45
2019-03-03T22:23:42.091Z,95550.85
2019-03-03T22:26:11.214Z,95531.35
2019-03-03T22:28:40.293Z,95522.80
2019-03-03T22:31:09.407Z,95502.00
2019-03-03T22:33:38.490Z,95509.77
2019-03-03T22:36:07.565Z,95499.04
2019-03-03T22:38:36.667Z,95490.91
2019-03-03T22:41:05.743Z,95516.06
2019-03-03T22:43:34.846Z,95499.50
2019-03-03T22:46:03.927Z,95502.78
2019-03-03T22:48:33.028Z,95500.05
2019-03-03T22:51:02.110Z,95486.06
2019-03-03T22:53:31.205Z,95485.98
2019-03-03T22:56:00.282Z,95473.32
2019-03-03T22:58:29.377Z,95477.00
2019-03-03T23:01:04.970Z,95470.15
2019-03-03T23:03:41.070Z,95474.41
2019-03-03T23:06:31.686Z,95472.98
2019-03-03T23:09:37.278Z,95464.19
2019-03-03T23:12:31.091Z,95448.83
2019-03-03T23:15:14.242Z,95441.21
2019-03-03T23:18:12.006Z,95440.22
2019-03-03T23:21:20.988Z,95420.61
2019-03-03T23:24:35.424Z,95415.60
2019-03-03T23:27:04.512Z,95426.88
2019-03-03T23:29:33.717Z,95409.70
2019-03-03T23:32:02.799Z,95407.01
2019-03-03T23:34:31.910Z,95391.04
2019-03-03T23:37:00.995Z,95395.13
2019-03-03T23:39:30.099Z,95403.54
2019-03-03T23:41:59.183Z,95402.29
2019-03-03T23:44:28.278Z,95389.57
2019-03-03T23:46:57.362Z,95386.80
2019-03-03T23:49:26.457Z,95396.89
2019-03-03T23:51:55.533Z,95381.97
2019-03-03T23:54:24.639Z,95383.56
2019-03-03T23:56:53.717Z,95368.26
2019-03-03T23:59:22.823Z,95354.99
